createdAt,value
2023-04-26T00:03:01.452Z,1011.53
2023-04-26T00:13:08.124Z,1011.52
2023-04-26T00:23:14.472Z,1011.55
2023-04-26T00:33:21.450Z,1011.55
2023-04-26T00:43:28.391Z,1011.58
2023-04-26T00:53:35.640Z,1011.58
2023-04-26T01:03:43.057Z,1011.58
2023-04-26T01:13:50.957Z,1011.68
2023-04-26T01:23:57.584Z,1011.65
2023-04-26T01:34:04.888Z,1011.78
2023-04-26T01:44:12.553Z,1011.84
2023-04-26T01:54:19.829Z,1011.86
2023-04-26T02:04:27.178Z,1011.90
2023-04-26T02:14:33.992Z,1011.91
2023-04-26T02:24:41.342Z,1011.89
2023-04-26T02:34:48.102Z,1011.87
2023-04-26T02:44:54.797Z,1011.85
2023-04-26T02:55:02.435Z,1011.79
2023-04-26T03:05:10.069Z,1011.81
2023-04-26T03:15:17.125Z,1011.88
2023-04-26T03:25:24.489Z,1011.87
2023-04-26T03:35:31.578Z,1011.98
2023-04-26T03:45:38.707Z,1012.04
2023-04-26T03:55:46.068Z,1012.04
2023-04-26T04:05:53.355Z,1012.09
2023-04-26T04:16:00.296Z,1012.11
2023-04-26T04:26:07.808Z,1012.23
2023-04-26T04:36:14.835Z,1012.28
2023-04-26T04:46:21.885Z,1012.37
2023-04-26T04:56:28.633Z,1012.46
2023-04-26T05:06:35.920Z,1012.52
2023-04-26T05:16:42.805Z,1012.59
2023-04-26T05:26:49.699Z,1012.74
2023-04-26T05:36:56.701Z,1012.78
2023-04-26T05:47:04.021Z,1012.85
2023-04-26T05:57:12.005Z,1012.93
2023-04-26T06:07:19.795Z,1013.02
2023-04-26T06:17:26.664Z,1013.04
2023-04-26T06:27:33.219Z,1013.03
2023-04-26T06:37:39.752Z,1013.09
2023-04-26T06:47:46.716Z,1013.13
2023-04-26T06:57:53.685Z,1013.14
2023-04-26T07:08:00.874Z,1013.19
2023-04-26T07:18:07.615Z,1013.17
2023-04-26T07:28:14.954Z,1013.17
2023-04-26T07:38:22.197Z,1013.27
2023-04-26T07:48:29.740Z,1013.30
2023-04-26T07:58:37.029Z,1013.30
2023-04-26T08:08:44.644Z,1013.41
2023-04-26T08:18:52.257Z,1013.41
2023-04-26T08:28:58.950Z,1013.50
2023-04-26T08:39:06.191Z,1013.51
2023-04-26T08:49:13.045Z,1013.44
2023-04-26T08:59:19.172Z,1013.56
2023-04-26T09:09:27.937Z,1013.63
2023-04-26T09:19:36.385Z,1013.60
2023-04-26T09:29:43.268Z,1013.53
2023-04-26T09:39:50.538Z,1013.47
2023-04-26T09:49:57.437Z,1013.51
2023-04-26T10:00:04.521Z,1013.49
2023-04-26T10:10:11.415Z,1013.43
2023-04-26T10:20:18.783Z,1013.54
2023-04-26T10:30:25.886Z,1013.67
2023-04-26T10:40:33.123Z,1013.69
2023-04-26T10:50:39.691Z,1013.63
2023-04-26T11:00:47.326Z,1013.76
2023-04-26T11:10:55.188Z,1013.72
2023-04-26T11:21:01.957Z,1013.66
2023-04-26T11:31:08.879Z,1013.73
2023-04-26T11:41:16.187Z,1013.72
2023-04-26T11:51:23.009Z,1013.76
2023-04-26T12:01:30.078Z,1013.79
2023-04-26T12:11:36.856Z,1013.83
2023-04-26T12:21:44.073Z,1013.93
2023-04-26T12:31:50.901Z,1013.96
2023-04-26T12:41:58.522Z,1013.87
2023-04-26T12:52:05.929Z,1013.70
2023-04-26T13:02:13.101Z,1013.75
2023-04-26T13:12:20.237Z,1013.71
2023-04-26T13:22:27.292Z,1013.78
2023-04-26T13:32:34.766Z,1013.82
2023-04-26T13:42:41.706Z,1013.92
2023-04-26T13:52:48.374Z,1013.81
2023-04-26T14:02:55.933Z,1013.91
2023-04-26T14:13:03.558Z,1013.98
2023-04-26T14:23:10.406Z,1013.93
2023-04-26T14:33:17.752Z,1013.93
2023-04-26T14:43:24.858Z,1013.93
2023-04-26T14:53:32.196Z,1013.93
2023-04-26T15:03:40.218Z,1013.96
2023-04-26T15:13:47.006Z,1013.94
2023-04-26T15:23:53.967Z,1013.94
2023-04-26T15:34:00.783Z,1013.93
2023-04-26T15:44:08.061Z,1014.00
2023-04-26T15:54:15.208Z,1014.06
2023-04-26T16:04:22.184Z,1014.12
2023-04-26T16:14:29.254Z,1014.13
2023-04-26T16:24:36.393Z,1014.18
2023-04-26T16:34:43.265Z,1014.05
2023-04-26T16:44:50.041Z,1014.04
2023-04-26T16:54:56.142Z,1014.10
2023-04-26T17:05:03.811Z,1014.16
2023-04-26T17:15:11.155Z,1014.18
2023-04-26T17:25:18.555Z,1014.34
2023-04-26T17:35:25.760Z,1014.37
2023-04-26T17:45:33.560Z,1014.43
2023-04-26T17:55:40.381Z,1014.45
2023-04-26T18:05:47.586Z,1014.57
2023-04-26T18:15:54.899Z,1014.62
2023-04-26T18:26:01.595Z,1014.69
2023-04-26T18:36:08.936Z,1014.79
2023-04-26T18:46:15.983Z,1014.87
2023-04-26T18:56:22.798Z,1015.02
2023-04-26T19:06:30.243Z,1015.08
2023-04-26T19:16:36.861Z,1015.08
2023-04-26T19:26:43.707Z,1015.17
2023-04-26T19:36:50.927Z,1015.18
2023-04-26T19:46:58.166Z,1015.26
2023-04-26T19:57:05.484Z,1015.28
2023-04-26T20:07:11.820Z,1015.32
2023-04-26T20:17:19.317Z,1015.40
2023-04-26T20:27:27.251Z,1015.43
2023-04-26T20:37:33.655Z,1015.45
2023-04-26T20:47:40.430Z,1015.43
2023-04-26T20:57:47.343Z,1015.51
2023-04-26T21:07:54.445Z,1015.49
2023-04-26T21:18:01.537Z,1015.46
2023-04-26T21:28:09.269Z,1015.51
2023-04-26T21:38:16.335Z,1015.50
2023-04-26T21:48:23.314Z,1015.60
2023-04-26T21:58:29.625Z,1015.60
2023-04-26T22:08:36.720Z,1015.63
2023-04-26T22:18:44.081Z,1015.77
2023-04-26T22:28:50.878Z,1015.85
2023-04-26T22:38:57.555Z,1015.96
2023-04-26T22:49:04.892Z,1016.03
2023-04-26T22:59:11.836Z,1016.04
2023-04-26T23:09:19.825Z,1016.14
2023-04-26T23:19:27.409Z,1016.17
2023-04-26T23:29:34.126Z,1016.13
2023-04-26T23:39:41.571Z,1016.19
2023-04-26T23:49:48.849Z,1016.14
2023-04-26T23:59:56.313Z,1016.05
